Time;durP1;ratioP1;P1;durP2;ratioP2;P2;SDS_P1;SDS_P2;PMS_P1;PMS_P2;Temp;Humidity;BMP_temperature;BMP_pressure;BME280_temperature;BME280_humidity;BME280_pressure;Samples;Min_cycle;Max_cycle;Signal;HPM_P1;HPM_P2
2022/01/17 00:01:45;;;;;;;62.65;24.70;;;4.80;99.90;;;;;;7228231;32;20101;-77
2022/01/17 00:05:47;;;;;;;61.45;25.83;;;4.80;99.90;;;;;;7230905;32;20101;-78
2022/01/17 00:09:49;;;;;;;55.38;25.12;;;4.80;99.90;;;;;;7242683;32;20139;-78
2022/01/17 00:13:51;;;;;;;58.05;24.75;;;4.80;99.90;;;;;;7239858;32;20605;-78
2022/01/17 00:18:19;;;;;;;58.05;24.73;;;4.80;99.90;;;;;;7224775;32;20138;-77
2022/01/17 00:22:15;;;;;;;62.42;25.10;;;4.80;99.90;;;;;;7229664;32;20513;-78
2022/01/17 00:26:18;;;;;;;54.58;23.98;;;4.80;99.90;;;;;;7213627;32;20278;-78
2022/01/17 00:30:19;;;;;;;53.30;23.62;;;4.80;99.90;;;;;;7229848;32;20753;-77
2022/01/17 00:34:22;;;;;;;51.75;20.50;;;4.90;99.90;;;;;;7211067;32;20148;-78
2022/01/17 00:38:25;;;;;;;53.47;24.15;;;4.90;99.90;;;;;;7230012;32;20180;-77
2022/01/17 00:42:27;;;;;;;49.38;24.12;;;4.90;99.90;;;;;;7218861;32;20559;-78
2022/01/17 00:46:29;;;;;;;59.50;25.00;;;4.90;99.90;;;;;;7215177;32;20150;-78
2022/01/17 00:50:32;;;;;;;53.38;23.87;;;4.90;99.90;;;;;;7229707;32;20221;-78
2022/01/17 00:54:42;;;;;;;52.45;23.85;;;5.00;99.90;;;;;;7231779;32;20588;-78
2022/01/17 00:58:44;;;;;;;49.78;23.25;;;4.90;99.90;;;;;;7229500;32;20283;-78
2022/01/17 01:02:47;;;;;;;56.80;24.20;;;4.90;99.90;;;;;;7216402;32;20128;-78
2022/01/17 01:06:49;;;;;;;60.63;25.98;;;4.90;99.90;;;;;;7212791;32;20246;-78
2022/01/17 01:10:51;;;;;;;67.30;26.67;;;4.90;99.90;;;;;;7218469;32;20175;-77
2022/01/17 01:14:53;;;;;;;62.33;26.50;;;4.90;99.90;;;;;;7229124;32;20137;-78
2022/01/17 01:31:48;;;;;;;65.00;27.30;;;5.00;99.90;;;;;;7218853;32;20287;-77
2022/01/17 01:35:57;;;;;;;58.87;25.55;;;4.90;99.90;;;;;;7220300;32;20128;-78
2022/01/17 01:39:59;;;;;;;64.50;27.02;;;5.00;99.90;;;;;;7228447;32;20116;-78
2022/01/17 01:44:03;;;;;;;59.88;26.35;;;5.00;99.90;;;;;;7232533;32;20719;-79
2022/01/17 01:48:08;;;;;;;60.50;27.37;;;5.00;99.90;;;;;;7212822;32;20151;-78
2022/01/17 01:52:09;;;;;;;66.57;29.12;;;5.00;99.90;;;;;;7217469;32;20475;-78
2022/01/17 01:56:11;;;;;;;68.68;30.08;;;5.00;99.90;;;;;;7217210;32;20129;-78
2022/01/17 02:00:15;;;;;;;72.00;28.42;;;5.00;99.90;;;;;;7232905;32;20124;-79
2022/01/17 02:04:17;;;;;;;74.90;29.15;;;5.00;99.90;;;;;;7216474;32;20117;-78
2022/01/17 02:08:19;;;;;;;68.18;27.15;;;5.10;99.90;;;;;;7216241;32;20644;-78
2022/01/17 02:12:21;;;;;;;78.50;30.17;;;5.00;99.90;;;;;;7227451;32;20636;-78
2022/01/17 02:16:24;;;;;;;70.05;29.80;;;5.00;99.90;;;;;;7220150;32;20223;-78
2022/01/17 02:20:40;;;;;;;70.87;30.08;;;5.10;99.90;;;;;;7227161;32;20097;-78
2022/01/17 02:24:42;;;;;;;70.20;28.75;;;5.10;99.90;;;;;;7228718;32;20605;-78
2022/01/17 02:28:46;;;;;;;71.37;29.77;;;5.10;99.90;;;;;;7204949;32;21599;-78
2022/01/17 02:32:48;;;;;;;65.43;28.92;;;5.10;99.90;;;;;;7237569;32;20211;-78
2022/01/17 02:36:50;;;;;;;72.62;30.52;;;5.10;99.90;;;;;;7249504;32;20096;-79
2022/01/17 02:40:53;;;;;;;65.07;26.75;;;5.10;99.90;;;;;;7216099;32;20191;-78
2022/01/17 02:45:00;;;;;;;66.07;28.58;;;5.10;99.90;;;;;;7226242;32;20112;-78
2022/01/17 02:49:05;;;;;;;69.75;29.08;;;5.20;99.90;;;;;;7235421;32;20125;-78
2022/01/17 02:53:09;;;;;;;70.60;29.92;;;5.20;99.90;;;;;;7211881;32;20134;-78
2022/01/17 02:57:11;;;;;;;71.18;29.63;;;5.20;99.90;;;;;;7216896;32;20599;-79
2022/01/17 03:01:22;;;;;;;66.00;29.92;;;5.20;99.90;;;;;;7208560;32;20174;-79
2022/01/17 03:05:24;;;;;;;66.53;28.25;;;5.20;99.90;;;;;;7210104;32;20196;-78
2022/01/17 03:09:30;;;;;;;68.28;28.77;;;5.20;99.90;;;;;;7225114;32;20267;-78
2022/01/17 03:13:35;;;;;;;73.03;29.08;;;5.20;99.90;;;;;;7227105;32;20282;-78
2022/01/17 03:17:37;;;;;;;82.32;31.92;;;5.20;99.90;;;;;;7230925;32;21134;-78
2022/01/17 03:21:39;;;;;;;75.53;30.85;;;5.20;99.90;;;;;;7226238;32;20377;-78
2022/01/17 03:25:41;;;;;;;81.10;31.48;;;5.20;99.90;;;;;;7231309;32;20110;-78
2022/01/17 03:29:43;;;;;;;79.37;31.60;;;5.30;99.90;;;;;;7212944;32;20212;-77
2022/01/17 03:33:45;;;;;;;74.53;31.00;;;5.30;99.90;;;;;;7225071;32;20183;-78
2022/01/17 03:37:47;;;;;;;79.07;32.75;;;5.30;99.90;;;;;;7214416;32;20153;-78
2022/01/17 03:41:49;;;;;;;77.97;32.83;;;5.20;99.90;;;;;;7230145;32;20261;-77
2022/01/17 03:45:51;;;;;;;75.75;32.67;;;5.20;99.90;;;;;;7203886;32;20173;-78
2022/01/17 03:49:53;;;;;;;78.57;33.67;;;5.30;99.90;;;;;;7232981;32;20481;-77
2022/01/17 03:53:55;;;;;;;68.68;32.08;;;5.20;99.90;;;;;;7216544;32;20097;-78
2022/01/17 03:57:56;;;;;;;79.32;31.85;;;5.30;99.90;;;;;;7218345;32;20168;-78
2022/01/17 04:01:58;;;;;;;72.45;30.33;;;5.30;99.90;;;;;;7215961;32;20206;-78
2022/01/17 04:06:00;;;;;;;71.90;29.00;;;5.30;99.90;;;;;;7230340;32;20494;-78
2022/01/17 04:10:03;;;;;;;82.88;31.40;;;5.20;99.90;;;;;;7219705;32;20616;-78
2022/01/17 04:14:06;;;;;;;72.93;29.73;;;5.20;99.90;;;;;;7228650;32;20125;-77
2022/01/17 04:18:09;;;;;;;69.35;30.92;;;5.30;99.90;;;;;;7217214;32;20560;-78
2022/01/17 04:22:11;;;;;;;70.70;28.67;;;5.20;99.90;;;;;;7218532;32;20194;-77
2022/01/17 04:26:14;;;;;;;65.28;29.98;;;5.20;99.90;;;;;;7210689;32;20176;-78
2022/01/17 04:30:17;;;;;;;64.62;27.45;;;5.20;99.90;;;;;;7233079;32;20493;-78
2022/01/17 04:34:18;;;;;;;73.72;29.58;;;5.10;99.90;;;;;;7215105;32;20283;-79
2022/01/17 04:38:20;;;;;;;69.57;30.37;;;5.10;99.90;;;;;;7211279;32;20239;-78
2022/01/17 04:42:26;;;;;;;64.47;28.87;;;5.10;99.90;;;;;;7215302;32;20105;-78
2022/01/17 04:46:27;;;;;;;56.63;27.67;;;5.10;99.90;;;;;;7218506;32;20219;-77
2022/01/17 04:50:30;;;;;;;65.97;28.65;;;5.10;99.90;;;;;;7227209;32;20327;-78
2022/01/17 04:54:40;;;;;;;60.42;29.52;;;5.10;99.90;;;;;;7216860;32;20476;-77
2022/01/17 04:58:42;;;;;;;58.67;27.08;;;5.10;99.90;;;;;;7236912;32;20116;-79
2022/01/17 05:02:44;;;;;;;63.63;28.70;;;5.20;99.90;;;;;;7211091;32;20184;-80
2022/01/17 05:06:46;;;;;;;60.03;28.23;;;5.10;99.90;;;;;;7232012;32;20853;-76
2022/01/17 05:10:52;;;;;;;69.35;28.33;;;5.10;99.90;;;;;;7218561;32;20127;-77
2022/01/17 05:14:55;;;;;;;64.82;29.35;;;5.10;99.90;;;;;;7241107;32;20113;-77
2022/01/17 05:23:17;;;;;;;61.83;26.05;;;5.20;99.90;;;;;;7227125;32;20196;-78
2022/01/17 05:27:19;;;;;;;58.65;27.33;;;5.20;99.90;;;;;;7218898;32;20226;-78
2022/01/17 05:31:21;;;;;;;59.45;25.85;;;5.10;99.90;;;;;;7224020;32;20199;-77
2022/01/17 05:35:23;;;;;;;58.40;25.85;;;5.10;99.90;;;;;;7239312;32;20108;-77
2022/01/17 05:39:24;;;;;;;62.97;27.48;;;5.10;99.90;;;;;;7223250;32;20105;-78
2022/01/17 05:43:26;;;;;;;58.53;27.65;;;5.20;99.90;;;;;;7237104;32;20196;-78
2022/01/17 05:47:28;;;;;;;55.75;27.48;;;5.20;99.90;;;;;;7232510;32;20105;-77
2022/01/17 05:51:30;;;;;;;59.35;26.92;;;5.10;99.90;;;;;;7219193;32;20134;-77
2022/01/17 05:55:32;;;;;;;56.17;26.80;;;5.20;99.90;;;;;;7232986;32;20180;-78
2022/01/17 05:59:34;;;;;;;58.00;27.40;;;5.10;99.90;;;;;;7222224;32;20224;-77
2022/01/17 06:03:40;;;;;;;;;;;5.20;99.90;;;;;;7225511;32;20129;-78
2022/01/17 06:07:42;;;;;;;54.67;25.42;;;5.20;99.90;;;;;;7227500;32;20066;-80
2022/01/17 06:11:44;;;;;;;59.58;27.83;;;5.10;99.90;;;;;;7238940;32;20126;-78
2022/01/17 06:15:46;;;;;;;56.80;27.08;;;5.10;99.90;;;;;;7217202;32;20187;-78
2022/01/17 06:20:04;;;;;;;59.05;26.70;;;5.10;99.90;;;;;;7229902;32;20470;-78
2022/01/17 06:24:06;;;;;;;56.33;27.50;;;5.10;99.90;;;;;;7219923;32;20206;-78
2022/01/17 06:28:08;;;;;;;51.88;24.20;;;5.10;99.90;;;;;;7220141;32;20172;-79
2022/01/17 06:32:10;;;;;;;46.60;24.17;;;5.10;99.90;;;;;;7225800;32;20128;-78
2022/01/17 06:36:32;;;;;;;52.75;24.77;;;5.10;99.90;;;;;;7226104;32;20227;-78
2022/01/17 06:40:34;;;;;;;51.05;23.25;;;5.10;99.90;;;;;;7238502;32;20118;-78
2022/01/17 06:44:41;;;;;;;44.17;22.92;;;5.10;99.90;;;;;;7235268;32;20104;-80
2022/01/17 06:48:46;;;;;;;47.38;23.55;;;5.10;99.90;;;;;;7230178;32;20167;-78
2022/01/17 06:52:48;;;;;;;51.67;22.87;;;5.10;99.90;;;;;;7229795;32;20128;-78
2022/01/17 06:56:50;;;;;;;44.35;22.33;;;5.10;99.90;;;;;;7211658;32;20266;-78
2022/01/17 07:00:51;;;;;;;44.50;21.83;;;5.10;99.90;;;;;;7225244;32;20112;-78
2022/01/17 07:04:53;;;;;;;48.30;23.10;;;5.10;99.90;;;;;;7198484;32;20135;-78
2022/01/17 07:08:55;;;;;;;47.70;22.65;;;5.10;99.90;;;;;;7213263;32;20577;-78
2022/01/17 07:12:57;;;;;;;49.33;22.05;;;5.10;99.90;;;;;;7210890;32;20110;-79
2022/01/17 07:16:59;;;;;;;49.72;22.98;;;5.10;99.90;;;;;;7229172;32;20690;-79
2022/01/17 07:21:01;;;;;;;46.22;21.90;;;5.10;99.90;;;;;;7230685;32;20133;-78
2022/01/17 07:25:03;;;;;;;52.35;24.08;;;5.00;99.90;;;;;;7225035;32;20140;-78
2022/01/17 07:29:08;;;;;;;43.17;22.23;;;5.00;99.90;;;;;;7233604;32;20263;-79
2022/01/17 07:33:11;;;;;;;44.55;22.75;;;5.00;99.90;;;;;;7226566;32;20121;-78
2022/01/17 07:37:12;;;;;;;52.55;23.10;;;5.00;99.90;;;;;;7223576;32;20278;-78
2022/01/17 07:41:15;;;;;;;49.42;22.45;;;4.90;99.90;;;;;;7218802;32;20247;-78
2022/01/17 07:45:45;;;;;;;42.75;21.65;;;5.00;99.90;;;;;;7211552;32;20128;-78
2022/01/17 07:49:47;;;;;;;49.72;23.35;;;5.00;99.90;;;;;;7224961;32;20132;-78
2022/01/17 07:54:10;;;;;;;47.35;23.05;;;5.00;99.90;;;;;;7219794;32;20105;-78
2022/01/17 07:58:12;;;;;;;49.58;22.90;;;5.10;99.90;;;;;;7207750;32;20108;-78
2022/01/17 08:02:14;;;;;;;50.45;21.90;;;5.10;99.90;;;;;;7215460;32;20124;-78
2022/01/17 08:06:17;;;;;;;45.72;22.77;;;5.20;99.90;;;;;;7226688;32;20141;-78
2022/01/17 08:10:19;;;;;;;38.42;20.60;;;5.20;99.90;;;;;;7231776;32;20233;-78
2022/01/17 08:14:23;;;;;;;45.72;22.55;;;5.30;99.90;;;;;;7215315;32;20125;-78
2022/01/17 08:18:25;;;;;;;42.88;21.85;;;5.30;99.90;;;;;;7230944;32;20127;-78
2022/01/17 08:22:26;;;;;;;49.25;21.27;;;5.40;99.90;;;;;;7232944;32;20183;-78
2022/01/17 08:26:29;;;;;;;47.15;20.98;;;5.40;99.90;;;;;;7221817;32;20166;-78
2022/01/17 08:30:32;;;;;;;36.10;18.12;;;5.50;99.90;;;;;;7222615;32;20179;-78
2022/01/17 08:34:54;;;;;;;38.20;21.00;;;5.50;99.90;;;;;;7230677;32;20105;-78
2022/01/17 08:38:56;;;;;;;49.65;22.70;;;5.50;99.90;;;;;;7229617;32;20127;-78
2022/01/17 08:42:57;;;;;;;41.72;20.42;;;5.50;99.90;;;;;;7224220;32;20804;-77
2022/01/17 08:46:59;;;;;;;44.15;20.37;;;5.50;99.90;;;;;;7214379;32;20617;-78
2022/01/17 08:51:01;;;;;;;41.92;19.62;;;5.60;99.90;;;;;;7227523;32;20235;-77
2022/01/17 08:55:04;;;;;;;49.63;22.15;;;5.60;99.90;;;;;;7234966;32;20134;-77
2022/01/17 08:59:06;;;;;;;46.78;24.83;;;5.60;99.90;;;;;;7229110;32;20203;-78
2022/01/17 09:03:08;;;;;;;44.35;24.25;;;5.60;99.90;;;;;;7212997;32;20105;-77
2022/01/17 09:07:16;;;;;;;43.45;25.25;;;5.60;99.90;;;;;;7230720;32;20288;-77
2022/01/17 09:11:18;;;;;;;46.65;25.02;;;5.70;99.90;;;;;;7228003;32;20542;-78
2022/01/17 09:15:20;;;;;;;46.80;24.85;;;5.70;99.90;;;;;;7228208;32;20199;-77
2022/01/17 09:19:22;;;;;;;46.10;24.35;;;5.80;99.90;;;;;;7217592;32;20178;-78
2022/01/17 09:23:24;;;;;;;45.05;24.95;;;5.70;99.90;;;;;;7229601;32;20227;-78
2022/01/17 09:27:26;;;;;;;40.65;23.98;;;5.80;99.90;;;;;;7224013;32;20104;-78
2022/01/17 09:31:28;;;;;;;46.72;24.25;;;5.70;99.90;;;;;;7214090;32;20112;-78
2022/01/17 09:35:32;;;;;;;45.33;24.58;;;5.80;99.90;;;;;;7220213;32;20226;-77
2022/01/17 09:39:35;;;;;;;45.12;23.80;;;5.80;99.90;;;;;;7216832;32;20187;-77
2022/01/17 09:43:38;;;;;;;44.67;24.50;;;5.80;99.90;;;;;;7227498;32;20215;-77
2022/01/17 09:47:41;;;;;;;42.15;23.50;;;5.80;99.90;;;;;;7229254;32;20201;-77
2022/01/17 09:56:03;;;;;;;42.08;22.42;;;5.90;99.90;;;;;;7217248;32;20798;-77
2022/01/17 10:00:07;;;;;;;41.63;23.02;;;5.90;99.90;;;;;;7217035;32;20183;-78
2022/01/17 10:04:09;;;;;;;41.22;20.45;;;5.90;99.90;;;;;;7219493;32;20241;-77
2022/01/17 10:08:16;;;;;;;51.22;23.77;;;6.00;99.90;;;;;;7228849;32;20120;-77
2022/01/17 10:12:18;;;;;;;39.63;22.62;;;6.00;99.90;;;;;;7226613;32;20841;-78
2022/01/17 10:16:21;;;;;;;34.95;21.60;;;5.90;99.90;;;;;;7212715;32;20728;-77
2022/01/17 10:20:23;;;;;;;38.40;21.05;;;6.00;99.90;;;;;;7231932;32;20117;-77
2022/01/17 10:24:36;;;;;;;41.42;21.80;;;6.10;99.90;;;;;;7225697;32;20231;-77
2022/01/17 10:29:08;;;;;;;38.33;20.77;;;6.10;99.90;;;;;;7229642;32;20175;-77
2022/01/17 10:37:30;;;;;;;42.28;21.73;;;6.10;99.90;;;;;;7211708;32;20223;-76
2022/01/17 10:41:32;;;;;;;38.22;21.40;;;6.10;99.90;;;;;;7215058;32;20789;-77
2022/01/17 10:45:41;;;;;;;40.15;21.12;;;6.00;99.90;;;;;;7228881;32;20194;-77
2022/01/17 10:49:58;;;;;;;37.55;20.73;;;6.00;99.90;;;;;;7242688;32;20117;-76
2022/01/17 10:54:14;;;;;;;35.35;20.73;;;6.00;99.90;;;;;;7220193;32;20211;-77
2022/01/17 10:58:21;;;;;;;42.08;20.20;;;6.00;99.90;;;;;;7219422;32;20159;-77
2022/01/17 11:02:26;;;;;;;39.58;20.52;;;6.00;99.90;;;;;;7227369;32;20200;-77
2022/01/17 11:06:28;;;;;;;43.47;22.50;;;6.00;99.90;;;;;;7220186;32;20192;-77
2022/01/17 11:10:42;;;;;;;40.83;22.30;;;6.00;99.90;;;;;;7239481;32;20318;-77
2022/01/17 11:14:44;;;;;;;40.58;21.92;;;6.00;99.90;;;;;;7222417;32;20180;-77
2022/01/17 11:18:58;;;;;;;38.35;22.73;;;6.00;99.90;;;;;;7225859;32;20520;-77
2022/01/17 11:23:01;;;;;;;42.00;23.25;;;5.90;99.90;;;;;;7217592;32;20163;-77
2022/01/17 11:27:03;;;;;;;45.55;23.15;;;5.90;99.90;;;;;;7220626;32;20168;-76
2022/01/17 11:31:13;;;;;;;42.38;23.08;;;5.90;99.90;;;;;;7230518;32;20228;-77
2022/01/17 11:35:17;;;;;;;46.25;23.60;;;5.90;99.90;;;;;;7234642;32;20191;-77
2022/01/17 11:39:18;;;;;;;40.78;22.85;;;5.90;99.90;;;;;;7229368;32;20143;-77
2022/01/17 11:43:33;;;;;;;45.60;22.67;;;5.90;99.90;;;;;;7227236;32;20637;-77
2022/01/17 11:47:52;;;;;;;41.60;23.38;;;6.00;99.90;;;;;;7227835;32;20127;-77
2022/01/17 11:51:54;;;;;;;36.72;21.70;;;6.00;99.90;;;;;;7214463;32;20136;-77
2022/01/17 11:55:56;;;;;;;37.85;20.25;;;6.00;99.90;;;;;;7229459;32;20137;-76
2022/01/17 12:00:02;;;;;;;38.03;20.27;;;6.00;99.90;;;;;;7229716;32;20117;-77
2022/01/17 12:04:05;;;;;;;31.50;18.10;;;6.10;99.90;;;;;;7236949;32;20200;-79
2022/01/17 12:08:09;;;;;;;33.20;17.48;;;6.10;99.90;;;;;;7235146;32;20136;-78
2022/01/17 12:12:14;;;;;;;40.22;18.42;;;6.20;99.90;;;;;;7217378;32;20230;-78
2022/01/17 12:16:38;;;;;;;39.13;18.45;;;6.10;99.90;;;;;;7236622;32;20120;-81
2022/01/17 12:20:47;;;;;;;31.25;16.50;;;6.10;99.90;;;;;;7234246;32;20117;-78
2022/01/17 12:24:49;;;;;;;28.30;15.43;;;6.20;99.90;;;;;;7231749;32;20120;-78
2022/01/17 12:28:53;;;;;;;33.55;14.63;;;6.20;99.90;;;;;;7232314;32;20256;-78
2022/01/17 12:32:55;;;;;;;33.78;14.73;;;6.20;99.90;;;;;;7232004;32;20558;-77
2022/01/17 12:36:59;;;;;;;29.67;15.10;;;6.30;99.90;;;;;;7218567;32;20164;-78
2022/01/17 12:41:01;;;;;;;31.37;14.80;;;6.20;99.90;;;;;;7233698;32;20604;-78
2022/01/17 12:45:04;;;;;;;38.58;15.70;;;6.20;99.90;;;;;;7224868;32;20113;-78
2022/01/17 12:49:05;;;;;;;25.02;13.18;;;6.30;99.90;;;;;;7212839;32;20456;-78
2022/01/17 12:53:10;;;;;;;29.50;14.32;;;6.30;99.90;;;;;;7218817;32;20128;-78
2022/01/17 12:57:11;;;;;;;31.58;14.15;;;6.30;99.90;;;;;;7236962;32;20227;-79
2022/01/17 13:01:16;;;;;;;30.48;13.15;;;6.30;99.90;;;;;;7220511;32;20137;-76
2022/01/17 13:05:24;;;;;;;30.12;14.43;;;6.30;99.90;;;;;;7219890;32;20224;-79
2022/01/17 13:09:28;;;;;;;33.00;14.65;;;6.20;99.90;;;;;;7237155;32;20116;-81
2022/01/17 13:13:30;;;;;;;23.92;12.02;;;6.30;99.90;;;;;;7218426;32;20178;-77
2022/01/17 13:17:33;;;;;;;29.48;13.70;;;6.30;99.90;;;;;;7237689;32;20223;-77
2022/01/17 13:21:38;;;;;;;23.27;13.43;;;6.30;99.90;;;;;;7226932;32;20152;-77
2022/01/17 13:25:41;;;;;;;37.85;13.32;;;6.50;99.90;;;;;;7215717;32;20256;-77
2022/01/17 13:29:45;;;;;;;35.13;14.30;;;6.40;99.90;;;;;;7233691;32;20178;-84
2022/01/17 13:33:50;;;;;;;31.67;12.95;;;6.40;99.90;;;;;;7235017;32;20179;-78
2022/01/17 13:38:22;;;;;;;39.58;13.68;;;6.40;99.90;;;;;;7222651;32;20180;-76
2022/01/17 13:42:24;;;;;;;39.40;12.82;;;6.50;99.90;;;;;;7220927;32;20117;-77
2022/01/17 13:46:27;;;;;;;36.42;11.77;;;6.60;99.90;;;;;;7208914;32;20133;-82
2022/01/17 13:50:29;;;;;;;25.25;10.95;;;6.60;99.90;;;;;;7236742;32;20161;-76
2022/01/17 13:54:35;;;;;;;31.40;12.13;;;6.60;99.90;;;;;;7216482;32;20175;-84
2022/01/17 13:58:44;;;;;;;42.90;18.08;;;6.60;99.90;;;;;;7242354;32;20179;-78
2022/01/17 14:02:46;;;;;;;29.67;12.85;;;6.60;99.90;;;;;;7240386;32;20132;-77
2022/01/17 14:06:59;;;;;;;24.25;12.30;;;6.60;99.90;;;;;;7240994;32;20127;-78
2022/01/17 14:11:03;;;;;;;40.78;11.68;;;6.60;99.90;;;;;;7234913;32;20117;-78
2022/01/17 14:15:05;;;;;;;30.12;12.77;;;6.60;99.90;;;;;;7243689;32;20308;-78
2022/01/17 14:19:13;;;;;;;34.25;11.98;;;6.60;99.90;;;;;;7223619;32;20125;-82
2022/01/17 14:23:39;;;;;;;36.42;11.57;;;6.60;99.90;;;;;;7232366;32;20127;-77
2022/01/17 14:28:00;;;;;;;31.20;11.38;;;6.60;99.90;;;;;;7232987;32;20105;-78
2022/01/17 14:32:03;;;;;;;30.20;12.65;;;6.70;99.90;;;;;;7232259;32;20200;-77
2022/01/17 14:36:16;;;;;;;31.10;10.23;;;6.60;99.90;;;;;;7228813;32;20117;-78
2022/01/17 14:40:19;;;;;;;26.65;9.32;;;6.60;99.90;;;;;;7220588;32;20188;-77
2022/01/17 14:44:21;;;;;;;32.15;10.40;;;6.60;99.90;;;;;;7220364;32;20203;-77
2022/01/17 14:48:26;;;;;;;31.65;10.20;;;6.70;99.90;;;;;;7212943;32;20742;-83
2022/01/17 14:52:34;;;;;;;31.42;10.52;;;6.70;99.90;;;;;;7253909;32;20135;-78
2022/01/17 15:01:11;;;;;;;33.28;10.45;;;6.70;99.90;;;;;;7225068;32;20113;-78
2022/01/17 15:05:15;;;;;;;34.60;11.18;;;6.70;99.90;;;;;;7220690;32;20561;-78
2022/01/17 15:09:17;;;;;;;29.55;9.25;;;6.70;99.90;;;;;;7227418;32;20750;-78
2022/01/17 15:13:39;;;;;;;45.75;18.52;;;6.80;99.90;;;;;;7217194;32;20101;-77
2022/01/17 15:17:46;;;;;;;44.33;22.23;;;6.70;99.90;;;;;;7222930;32;20217;-76
2022/01/17 15:22:03;;;;;;;38.47;18.35;;;6.80;99.90;;;;;;7217142;32;20259;-76
2022/01/17 15:26:05;;;;;;;25.15;9.00;;;6.80;99.90;;;;;;7236946;32;20112;-76
2022/01/17 15:30:09;;;;;;;25.88;7.95;;;6.80;99.90;;;;;;7226634;32;20129;-76
2022/01/17 15:34:10;;;;;;;31.98;7.68;;;6.70;99.90;;;;;;7215737;32;20181;-77
2022/01/17 15:38:19;;;;;;;34.00;8.57;;;6.80;99.90;;;;;;7211625;32;20124;-77
2022/01/17 15:42:21;;;;;;;25.90;6.70;;;6.80;99.90;;;;;;7216044;32;20182;-76
2022/01/17 15:46:23;;;;;;;28.45;6.90;;;6.90;99.90;;;;;;7226613;32;20227;-76
2022/01/17 15:50:25;;;;;;;26.00;6.30;;;6.90;99.90;;;;;;7217443;32;20139;-76
2022/01/17 15:54:29;;;;;;;24.00;6.70;;;6.90;99.90;;;;;;7224358;32;20126;-76
2022/01/17 15:58:31;;;;;;;28.45;6.32;;;7.00;99.90;;;;;;7230902;32;20312;-76
2022/01/17 16:02:33;;;;;;;20.02;6.75;;;6.90;99.90;;;;;;7229444;32;20237;-76
2022/01/17 16:06:35;;;;;;;32.65;7.05;;;6.90;99.90;;;;;;7222213;32;20106;-76
2022/01/17 16:10:39;;;;;;;30.92;7.70;;;7.00;99.90;;;;;;7210741;32;20192;-77
2022/01/17 16:14:41;;;;;;;36.63;7.70;;;7.00;99.90;;;;;;7215435;32;20120;-77
2022/01/17 16:18:44;;;;;;;39.95;9.18;;;7.00;99.90;;;;;;7228674;32;20233;-77
2022/01/17 16:22:46;;;;;;;29.40;8.60;;;7.00;99.90;;;;;;7217802;32;20159;-77
2022/01/17 16:26:48;;;;;;;29.48;9.60;;;6.90;99.90;;;;;;7221746;32;20239;-76
2022/01/17 16:30:50;;;;;;;36.88;16.10;;;7.00;99.90;;;;;;7231425;32;20189;-77
2022/01/17 16:34:54;;;;;;;35.05;9.15;;;7.10;99.90;;;;;;7232075;32;20277;-77
2022/01/17 16:38:56;;;;;;;34.92;10.77;;;7.10;99.90;;;;;;7229680;32;20101;-77
2022/01/17 16:42:58;;;;;;;32.92;9.32;;;7.00;99.90;;;;;;7209094;32;20141;-77
2022/01/17 16:47:01;;;;;;;27.25;8.02;;;7.10;99.90;;;;;;7204494;32;20109;-76
2022/01/17 16:51:05;;;;;;;30.90;6.60;;;7.00;99.90;;;;;;7229174;32;20219;-76
2022/01/17 16:55:07;;;;;;;32.92;7.45;;;7.10;99.90;;;;;;7231569;32;20129;-76
2022/01/17 16:59:09;;;;;;;32.13;6.10;;;7.10;99.90;;;;;;7226587;32;20148;-76
2022/01/17 17:03:10;;;;;;;35.88;6.72;;;7.20;99.90;;;;;;7230112;32;20570;-77
2022/01/17 17:07:12;;;;;;;33.80;6.28;;;7.10;99.90;;;;;;7217975;32;20116;-76
2022/01/17 17:11:14;;;;;;;43.30;7.07;;;7.00;99.90;;;;;;7230911;32;20180;-78
2022/01/17 17:15:17;;;;;;;36.28;5.97;;;7.10;99.90;;;;;;7229944;32;20140;-77
2022/01/17 17:19:19;;;;;;;36.70;7.18;;;7.10;99.90;;;;;;7226440;32;20132;-77
2022/01/17 17:23:22;;;;;;;27.92;6.05;;;7.10;99.90;;;;;;7225212;32;20243;-77
2022/01/17 17:27:26;;;;;;;31.37;6.72;;;7.10;99.90;;;;;;7218842;32;20149;-76
2022/01/17 17:31:28;;;;;;;33.42;6.22;;;7.10;99.90;;;;;;7230216;32;20140;-76
2022/01/17 17:35:31;;;;;;;26.50;5.87;;;7.10;99.90;;;;;;7219599;32;20172;-76
2022/01/17 17:39:33;;;;;;;35.65;7.03;;;7.10;99.90;;;;;;7229495;32;20722;-77
2022/01/17 17:43:37;;;;;;;40.25;8.50;;;7.20;99.90;;;;;;7215549;32;20541;-77
2022/01/17 17:47:54;;;;;;;37.42;7.22;;;7.10;99.90;;;;;;7230469;32;20117;-77
2022/01/17 17:51:56;;;;;;;36.88;8.52;;;7.20;99.90;;;;;;7227572;32;20726;-77
2022/01/17 17:56:01;;;;;;;37.85;7.43;;;7.10;99.90;;;;;;7236350;32;20120;-77
2022/01/17 18:00:13;;;;;;;39.63;8.93;;;7.20;99.90;;;;;;7232437;32;20183;-79
2022/01/17 18:04:15;;;;;;;30.15;8.82;;;7.10;99.90;;;;;;7232560;32;20139;-77
2022/01/17 18:08:19;;;;;;;28.67;8.18;;;7.20;99.90;;;;;;7208680;32;20239;-78
2022/01/17 18:12:21;;;;;;;37.55;7.62;;;7.20;99.90;;;;;;7234897;32;20614;-78
2022/01/17 18:16:24;;;;;;;32.40;7.47;;;7.20;99.90;;;;;;7221719;32;20200;-78
2022/01/17 18:20:26;;;;;;;43.80;7.55;;;7.20;99.90;;;;;;7238918;32;20132;-77
2022/01/17 18:24:28;;;;;;;30.40;6.57;;;7.20;99.90;;;;;;7231425;32;20345;-77
2022/01/17 18:28:30;;;;;;;28.02;5.60;;;7.30;99.90;;;;;;7232417;32;20188;-78
2022/01/17 18:32:32;;;;;;;32.20;5.85;;;7.30;99.90;;;;;;7232621;32;20506;-78
2022/01/17 18:36:35;;;;;;;27.10;5.30;;;7.30;99.90;;;;;;7231663;32;20246;-78
2022/01/17 18:40:37;;;;;;;28.95;5.00;;;7.30;99.90;;;;;;7204234;32;20191;-78
2022/01/17 18:44:41;;;;;;;30.77;5.18;;;7.30;99.90;;;;;;7221927;32;20640;-78
2022/01/17 18:48:42;;;;;;;28.55;4.78;;;7.20;99.90;;;;;;7232576;32;20134;-78
2022/01/17 18:52:52;;;;;;;25.12;4.35;;;7.20;99.90;;;;;;7228444;32;20109;-78
2022/01/17 18:56:55;;;;;;;23.15;4.05;;;7.20;99.90;;;;;;7230641;32;20108;-77
2022/01/17 19:00:57;;;;;;;21.27;4.25;;;7.10;99.90;;;;;;7233192;32;20101;-77
2022/01/17 19:04:59;;;;;;;30.52;4.53;;;7.00;99.90;;;;;;7241035;32;20093;-78
2022/01/17 19:09:03;;;;;;;29.73;5.20;;;6.90;99.90;;;;;;7230893;32;20125;-78
2022/01/17 19:13:05;;;;;;;29.70;4.80;;;6.80;99.90;;;;;;7219140;32;20112;-77
2022/01/17 19:17:12;;;;;;;29.58;4.37;;;6.60;99.90;;;;;;7218542;32;20108;-77
2022/01/17 19:25:34;;;;;;;34.03;3.92;;;6.50;99.90;;;;;;7235670;32;20549;-77
2022/01/17 19:29:36;;;;;;;27.45;4.70;;;6.70;99.90;;;;;;7223763;32;20378;-78
2022/01/17 19:33:39;;;;;;;29.12;4.10;;;6.60;99.90;;;;;;7224346;32;20113;-77
2022/01/17 19:37:41;;;;;;;23.05;3.28;;;6.60;99.90;;;;;;7208793;32;20168;-77
2022/01/17 19:42:06;;;;;;;25.05;3.70;;;6.60;99.90;;;;;;7231618;32;20259;-77
2022/01/17 19:46:09;;;;;;;24.12;3.75;;;6.70;99.90;;;;;;7201687;32;20116;-77
2022/01/17 19:50:11;;;;;;;30.12;4.47;;;6.70;99.90;;;;;;7213788;32;20117;-77
2022/01/17 19:54:13;;;;;;;23.80;3.92;;;6.70;99.90;;;;;;7209540;32;20152;-76
2022/01/17 19:58:15;;;;;;;37.05;4.37;;;6.80;99.90;;;;;;7220692;32;20175;-77
2022/01/17 20:02:17;;;;;;;30.55;4.10;;;6.70;99.90;;;;;;7234872;32;20562;-77
2022/01/17 20:06:19;;;;;;;36.13;4.50;;;6.80;99.90;;;;;;7235938;32;20136;-76
2022/01/17 20:10:21;;;;;;;30.25;4.12;;;6.70;99.90;;;;;;7213186;32;20227;-78
2022/01/17 20:14:23;;;;;;;30.17;3.30;;;6.70;99.90;;;;;;7211322;32;20199;-78
2022/01/17 20:18:26;;;;;;;29.35;3.67;;;6.70;99.90;;;;;;7222782;32;20160;-78
2022/01/17 20:22:29;;;;;;;27.05;4.53;;;6.60;99.90;;;;;;7227240;32;20164;-78
2022/01/17 20:26:31;;;;;;;23.77;4.03;;;6.60;99.90;;;;;;7229055;32;20175;-78
2022/01/17 20:30:37;;;;;;;25.10;4.28;;;6.50;99.90;;;;;;7234036;32;20209;-77
2022/01/17 20:34:39;;;;;;;23.70;3.13;;;6.40;99.90;;;;;;7241430;32;20153;-79
2022/01/17 20:38:41;;;;;;;29.37;4.72;;;6.40;99.90;;;;;;7228108;32;20797;-79
2022/01/17 20:42:43;;;;;;;36.45;5.12;;;6.40;99.90;;;;;;7233862;32;20405;-79
2022/01/17 20:46:45;;;;;;;29.33;4.95;;;6.50;99.90;;;;;;7238250;32;20199;-79
2022/01/17 20:50:48;;;;;;;29.25;4.45;;;6.50;99.90;;;;;;7237631;32;20222;-78
2022/01/17 20:54:50;;;;;;;34.40;4.40;;;6.50;99.90;;;;;;7228347;32;20178;-78
2022/01/17 20:58:55;;;;;;;32.47;3.83;;;6.50;99.90;;;;;;7220361;32;20143;-77
2022/01/17 21:02:58;;;;;;;22.15;4.18;;;6.50;99.90;;;;;;7219039;32;20470;-77
2022/01/17 21:07:00;;;;;;;29.15;4.28;;;6.50;99.90;;;;;;7216220;32;20282;-76
2022/01/17 21:11:03;;;;;;;26.20;4.65;;;6.50;99.90;;;;;;7234910;32;20132;-77
2022/01/17 21:15:09;;;;;;;34.35;4.80;;;6.50;99.90;;;;;;7229379;32;20113;-77
2022/01/17 21:19:11;;;;;;;34.78;5.10;;;6.50;99.90;;;;;;7219027;32;20124;-77
2022/01/17 21:23:13;;;;;;;32.20;4.85;;;6.50;99.90;;;;;;7227139;32;20558;-77
2022/01/17 21:27:15;;;;;;;31.58;4.47;;;6.50;99.90;;;;;;7230302;32;20117;-76
2022/01/17 21:31:18;;;;;;;31.50;5.15;;;6.50;99.90;;;;;;7224477;32;20184;-77
2022/01/17 21:35:21;;;;;;;17.65;3.65;;;6.60;99.90;;;;;;7219892;32;20163;-77